Ana Sayfa
METAR-TAF:

METAR-TAF

Havaalanları :

Amarillo, Teksas, Amerika Birleşik Devletleri

Enlem: 35-13-12N, Boylam: 101-43-02W, yükseklik: 1099 m

Güncel hava durumu gözlemi

Rapor saat 18:53 UTC de 35 dakika önce yapıldı.
Sıcaklık 12°C
Nem 40%
Basınç 1011 hPa
Görüş mesafesi: 16.1 km
Açık gökyüzü

METAR: KAMA 241853Z 10SM CLR 12/M01 A2984 RMK AO2 SLP092 T01171006

Saat: 13:28 (19:28 UTC)

Tahmin

Rapor saat 17:20 UTC de 2 saat ve 8 dakika önce yapıldı.
Ayın 24'si saat 18 UTC'den ayın 25'si saat 18 UTC'ye kadar geçerli Tahmin
Rüzgar kuzeydan 10 kt
Görüş mesafesi: 10 km
Açık gökyüzü
Ayın 25'si saat 0100 UTC'den
Rüzgar kuzeydan 18 kt ve 37 kt'a kadar ani rüzgarlar
Görüş mesafesi: 10 km
25000 ft yükseklikte parçalı bulutlu
Ayın 25'si saat 0400 UTC'den
Rüzgar kuzeydan 13 kt
Görüş mesafesi: 10 km
20000 ft yükseklikte az bulutlu

TAF: KAMA 241720Z 2418/2518 36010KT P6SM SKC FM250100 36018G37KT P6SM SCT250 FM250400 36013KT P6SM FEW200

4.000'den fazla havaalanı için hava durumu gözlemleri ve tahminleri (METAR ve TAF raporları).

Kullanılabilir istasyonlar harita üzerinde sarı ve kırmızı noktalarla gösterilir.

İstasyonun adını görmek için fareyi noktanın üzerinde gezdirin.

Sonrasında hava gözlem ve tahminlerini görmek için tıklayın.

Haritayı değiştirmek için: yaklaştırmak için siyah artı işaretli yeşil düğmeye ve uzaklaştırmak için de eksi işaretli düğmeye hızla tıklayın; bitişik haritalar için yeşil okları kullanın.


METAR-TAF: